Time;durP1;ratioP1;P1;durP2;ratioP2;P2;SDS_P1;SDS_P2;PMS_P1;PMS_P2;Temp;Humidity;BMP_temperature;BMP_pressure;BME280_temperature;BME280_humidity;BME280_pressure;Samples;Min_cycle;Max_cycle;Signal;HPM_P1;HPM_P2
2022/05/07 00:00:47;;;;;;;7.65;6.65;;;;;;;12.24;77.02;99280.34;5032924;27;103966;-69
2022/05/07 00:03:16;;;;;;;5.85;5.35;;;;;;;12.35;76.32;99277.78;5032975;27;104484;-70
2022/05/07 00:05:44;;;;;;;7.80;7.10;;;;;;;12.21;76.34;99282.22;5037187;27;103282;-69
2022/05/07 00:08:13;;;;;;;8.00;7.30;;;;;;;12.16;76.45;99273.75;5028648;27;102683;-69
2022/05/07 00:10:43;;;;;;;8.02;7.32;;;;;;;12.07;76.58;99274.38;5029827;27;104094;-69
2022/05/07 00:13:11;;;;;;;8.50;7.75;;;;;;;11.78;78.44;99272.06;5032940;27;103385;-69
2022/05/07 00:15:39;;;;;;;9.23;8.13;;;;;;;11.77;77.64;99273.84;5032300;27;103310;-69
2022/05/07 00:18:10;;;;;;;10.05;9.15;;;;;;;11.58;79.58;99270.72;5030303;27;102647;-69
2022/05/07 00:20:39;;;;;;;9.15;8.25;;;;;;;11.90;77.92;99271.22;5031884;27;102727;-69
2022/05/07 00:23:07;;;;;;;10.57;9.57;;;;;;;11.32;79.53;99280.41;5033210;27;103616;-69
2022/05/07 00:25:39;;;;;;;8.35;7.65;;;;;;;11.72;79.13;99269.81;5028905;27;103178;-69
2022/05/07 00:28:07;;;;;;;8.77;7.97;;;;;;;11.64;78.41;99270.31;5031025;27;102998;-69
2022/05/07 00:30:34;;;;;;;7.75;7.07;;;;;;;11.88;77.41;99263.38;5027620;27;103994;-69
2022/05/07 00:33:02;;;;;;;7.20;6.60;;;;;;;11.95;77.42;99263.81;5022276;27;104326;-68
2022/05/07 00:35:30;;;;;;;6.55;6.05;;;;;;;12.02;76.55;99265.94;5029959;27;103283;-69
2022/05/07 00:37:58;;;;;;;6.63;6.07;;;;;;;11.95;76.63;99262.03;5019324;27;102691;-69
2022/05/07 00:40:26;;;;;;;6.43;5.85;;;;;;;11.98;76.39;99264.47;5029298;27;102839;-69
2022/05/07 00:42:56;;;;;;;7.20;6.60;;;;;;;11.98;76.42;99268.91;5024051;27;103960;-69
2022/05/07 00:45:24;;;;;;;6.50;5.90;;;;;;;11.93;76.87;99265.72;5025209;27;104469;-69
2022/05/07 00:47:54;;;;;;;6.90;6.30;;;;;;;12.01;76.04;99258.09;5030617;27;102809;-68
2022/05/07 00:53:09;;;;;;;5.70;5.20;;;;;;;11.90;76.56;99261.47;5037448;27;103624;-69
2022/05/07 00:55:38;;;;;;;5.00;4.68;;;;;;;12.00;76.19;99254.59;5029050;27;103387;-69
2022/05/07 00:58:08;;;;;;;6.67;6.07;;;;;;;11.71;76.97;99254.88;5025982;27;102935;-69
2022/05/07 01:00:36;;;;;;;6.95;6.45;;;;;;;11.34;78.36;99252.03;5027894;27;102693;-69
2022/05/07 01:03:04;;;;;;;6.07;5.67;;;;;;;11.45;79.29;99251.34;5027583;27;104177;-69
2022/05/07 01:05:33;;;;;;;4.43;4.07;;;;;;;11.71;78.47;99255.75;5032560;27;103875;-69
2022/05/07 01:08:04;;;;;;;4.73;4.43;;;;;;;11.88;77.22;99251.94;5026482;27;102955;-69
2022/05/07 01:10:33;;;;;;;5.50;5.10;;;;;;;11.80;76.44;99247.19;5031954;27;103038;-68
2022/05/07 01:13:01;;;;;;;6.78;6.00;;;;;;;11.68;76.45;99247.97;5027375;27;103662;-68
2022/05/07 01:15:30;;;;;;;8.23;7.30;;;;;;;10.72;80.38;99248.22;5022352;27;103408;-69
2022/05/07 01:18:00;;;;;;;9.05;8.15;;;;;;;10.32;81.48;99246.44;5023399;27;102752;-68
2022/05/07 01:20:29;;;;;;;7.53;6.93;;;;;;;10.71;81.77;99245.69;5032350;27;104170;-68
2022/05/07 01:23:00;;;;;;;6.70;6.10;;;;;;;11.14;79.61;99246.41;5025437;27;104432;-69
2022/05/07 01:25:28;;;;;;;5.88;5.43;;;;;;;11.26;78.63;99237.63;5026199;27;103328;-69
2022/05/07 01:27:57;;;;;;;6.20;5.70;;;;;;;11.36;77.62;99238.72;5028815;27;102681;-68
2022/05/07 01:30:29;;;;;;;6.53;5.93;;;;;;;11.21;77.41;99235.31;5031407;27;102972;-68
2022/05/07 01:32:57;;;;;;;5.85;5.40;;;;;;;11.30;78.01;99236.50;5025875;27;104246;-69
2022/05/07 01:35:25;;;;;;;4.80;4.50;;;;;;;11.41;77.52;99240.13;5021294;27;104359;-69
2022/05/07 01:37:55;;;;;;;6.00;5.50;;;;;;;11.37;76.64;99237.75;5024869;27;102621;-69
2022/05/07 01:40:26;;;;;;;6.70;6.10;;;;;;;11.07;78.67;99241.50;5026870;27;102813;-69
2022/05/07 01:42:55;;;;;;;5.97;5.47;;;;;;;11.16;78.78;99242.69;5032389;27;104452;-69
2022/05/07 01:45:24;;;;;;;6.32;5.70;;;;;;;10.94;79.36;99247.72;5027960;27;103285;-69
2022/05/07 01:48:10;;;;;;;6.63;5.97;;;;;;;10.72;79.89;99245.56;5032554;27;102656;-69
2022/05/07 01:50:53;;;;;;;6.45;5.95;;;;;;;10.45;82.03;99240.28;5027111;27;103961;-68
2022/05/07 01:53:26;;;;;;;7.85;7.25;;;;;;;9.78;84.83;99243.56;5036039;27;103833;-69
2022/05/07 01:55:57;;;;;;;7.73;7.13;;;;;;;9.58;87.66;99256.25;5034897;27;105957;-68
2022/05/07 01:58:36;;;;;;;4.13;3.83;;;;;;;10.52;83.63;99251.31;5025817;27;102959;-69
2022/05/07 02:01:10;;;;;;;4.53;4.22;;;;;;;10.92;81.46;99242.50;5024794;27;103962;-68
2022/05/07 02:03:38;;;;;;;4.95;4.55;;;;;;;11.06;79.55;99247.72;5028699;27;104189;-68
2022/05/07 02:06:08;;;;;;;6.00;5.60;;;;;;;11.05;78.07;99245.22;5031360;27;105474;-69
2022/05/07 02:08:37;;;;;;;6.38;5.88;;;;;;;11.01;77.99;99252.47;5028973;27;102659;-69
2022/05/07 02:11:11;;;;;;;6.60;6.00;;;;;;;10.97;77.21;99247.50;5024265;27;102907;-68
2022/05/07 02:13:39;;;;;;;7.43;6.72;;;;;;;10.58;78.92;99250.94;5033426;27;105871;-69
2022/05/07 02:16:08;;;;;;;6.10;5.60;;;;;;;10.71;79.58;99256.25;5031011;27;103248;-69
2022/05/07 02:18:36;;;;;;;6.27;5.77;;;;;;;10.78;78.64;99258.41;5022071;27;102708;-69
2022/05/07 02:21:04;;;;;;;5.13;4.75;;;;;;;10.93;78.22;99251.28;5042756;27;103710;-68
2022/05/07 02:23:32;;;;;;;6.63;6.03;;;;;;;10.74;77.60;99254.28;5023424;27;104412;-69
2022/05/07 02:26:00;;;;;;;6.75;6.15;;;;;;;10.39;80.38;99255.66;5024815;27;104240;-69
2022/05/07 02:28:29;;;;;;;5.30;4.90;;;;;;;10.65;80.21;99252.22;5024842;27;102736;-69
2022/05/07 02:31:03;;;;;;;5.20;4.80;;;;;;;10.85;78.87;99254.44;5027549;27;104034;-69
2022/05/07 02:33:32;;;;;;;6.63;6.13;;;;;;;10.72;77.91;99248.22;5030230;27;103265;-68
2022/05/07 02:36:00;;;;;;;6.07;5.57;;;;;;;10.74;77.93;99256.91;5021260;27;106165;-69
2022/05/07 02:38:28;;;;;;;7.05;6.38;;;;;;;10.65;78.06;99252.22;5024518;27;102764;-69
2022/05/07 02:43:43;;;;;;;8.25;7.20;;;;;;;9.95;79.88;99260.16;5025428;27;105022;-69
2022/05/07 02:46:16;;;;;;;8.80;7.95;;;;;;;9.27;84.17;99257.19;5026563;27;105276;-69
2022/05/07 02:48:45;;;;;;;7.93;7.13;;;;;;;9.75;83.82;99253.44;5028133;27;102808;-68
2022/05/07 02:51:17;;;;;;;7.25;6.65;;;;;;;9.73;83.82;99250.91;5021435;27;104389;-69
2022/05/07 02:53:45;;;;;;;6.75;6.25;;;;;;;9.86;83.18;99249.22;5044724;27;104102;-69
2022/05/07 02:56:13;;;;;;;7.82;7.15;;;;;;;9.68;83.18;99250.34;5026444;27;104194;-69
2022/05/07 02:58:47;;;;;;;6.40;5.90;;;;;;;10.01;82.97;99252.72;5028578;27;102683;-68
2022/05/07 03:01:17;;;;;;;5.75;5.35;;;;;;;10.11;82.33;99250.34;5035190;27;104982;-68
2022/05/07 03:03:45;;;;;;;5.82;5.32;;;;;;;10.34;80.40;99249.81;5030817;27;105149;-69
2022/05/07 03:06:13;;;;;;;5.32;4.85;;;;;;;10.47;79.42;99253.38;5030865;27;105673;-69
2022/05/07 03:08:41;;;;;;;4.78;4.40;;;;;;;10.51;78.53;99260.16;5032139;27;102556;-69
2022/05/07 03:11:09;;;;;;;5.80;5.30;;;;;;;10.45;78.02;99248.19;5028419;27;104048;-68
2022/05/07 03:13:37;;;;;;;6.22;5.72;;;;;;;10.37;77.62;99252.25;5024435;27;104166;-69
2022/05/07 03:16:09;;;;;;;6.97;6.37;;;;;;;10.04;79.54;99254.31;5029866;27;104938;-69
2022/05/07 03:18:38;;;;;;;6.10;5.50;;;;;;;10.03;79.82;99249.97;5023554;27;102662;-68
2022/05/07 03:21:06;;;;;;;6.00;5.60;;;;;;;10.04;79.69;99254.31;5029012;27;103711;-68
2022/05/07 03:23:34;;;;;;;5.83;5.43;;;;;;;10.10;79.53;99251.31;5030010;27;104239;-68
2022/05/07 03:26:06;;;;;;;7.22;6.63;;;;;;;9.88;79.71;99249.97;5025464;27;105481;-68
2022/05/07 03:28:34;;;;;;;7.63;6.93;;;;;;;9.66;80.86;99249.56;5032433;27;103090;-69
2022/05/07 03:31:04;;;;;;;6.90;6.30;;;;;;;9.87;80.74;99248.28;5026343;27;103575;-68
2022/05/07 03:33:34;;;;;;;7.20;6.60;;;;;;;9.90;80.16;99245.47;5025034;27;105253;-69
2022/05/07 03:36:02;;;;;;;6.57;6.07;;;;;;;10.01;80.12;99243.94;5027721;27;103127;-69
2022/05/07 03:38:30;;;;;;;5.85;5.35;;;;;;;10.12;79.25;99241.50;5035158;27;102594;-68
2022/05/07 03:41:07;;;;;;;4.90;4.60;;;;;;;10.21;78.46;99248.88;5025980;27;104022;-69
2022/05/07 03:43:40;;;;;;;7.23;6.53;;;;;;;10.14;77.25;99247.56;5033334;27;103389;-68
2022/05/07 03:46:08;;;;;;;6.03;5.53;;;;;;;9.98;79.06;99254.69;5029723;27;103216;-68
2022/05/07 03:48:47;;;;;;;7.57;6.97;;;;;;;9.57;80.24;99251.94;5033442;27;102643;-68
2022/05/07 03:51:15;;;;;;;7.13;6.53;;;;;;;9.38;82.08;99253.94;5030188;27;103990;-69
2022/05/07 03:53:42;;;;;;;7.43;6.70;;;;;;;9.44;80.07;99243.88;5032938;27;103878;-69
2022/05/07 03:56:15;;;;;;;7.07;6.50;;;;;;;9.37;80.99;99252.25;5027662;27;103641;-68
2022/05/07 03:58:44;;;;;;;5.72;5.22;;;;;;;9.66;80.86;99254.84;5024878;27;102637;-68
2022/05/07 04:01:26;;;;;;;7.93;7.23;;;;;;;9.56;79.09;99253.72;5032820;27;104069;-68
2022/05/07 04:03:56;;;;;;;7.35;6.75;;;;;;;9.31;81.64;99258.72;5026437;27;103125;-68
2022/05/07 04:06:23;;;;;;;7.88;7.22;;;;;;;8.99;83.09;99257.09;5024388;27;104455;-68
2022/05/07 04:08:52;;;;;;;5.17;4.77;;;;;;;9.48;82.46;99255.97;5034530;27;102625;-69
2022/05/07 04:11:22;;;;;;;6.80;6.20;;;;;;;9.68;80.01;99253.00;5029710;27;104119;-69
2022/05/07 04:13:52;;;;;;;5.68;5.18;;;;;;;9.87;79.69;99253.56;5033934;27;103998;-69
2022/05/07 04:16:22;;;;;;;5.80;5.30;;;;;;;9.96;78.76;99261.88;5023810;27;104267;-69
2022/05/07 04:19:04;;;;;;;6.60;6.00;;;;;;;9.85;78.42;99266.00;5030215;27;102663;-69
2022/05/07 04:21:34;;;;;;;6.00;5.50;;;;;;;9.89;78.68;99256.97;5032590;27;104189;-69
2022/05/07 04:24:09;;;;;;;6.10;5.60;;;;;;;9.83;78.92;99257.31;5030212;27;102716;-69
2022/05/07 04:26:38;;;;;;;7.03;6.43;;;;;;;9.47;80.65;99254.25;5030616;27;105948;-69
2022/05/07 04:29:06;;;;;;;6.10;5.60;;;;;;;9.55;81.64;99257.28;5025922;27;102694;-69
2022/05/07 04:31:35;;;;;;;6.20;5.70;;;;;;;9.84;80.33;99266.09;5028045;27;104121;-69
2022/05/07 04:34:08;;;;;;;5.45;5.05;;;;;;;9.90;80.40;99268.38;5032142;27;104543;-69
2022/05/07 04:36:37;;;;;;;5.10;4.70;;;;;;;10.09;79.85;99263.66;5035348;27;104239;-70
2022/05/07 04:39:13;;;;;;;5.45;5.05;;;;;;;10.23;78.82;99265.47;5026055;27;102841;-70
2022/05/07 04:42:00;;;;;;;5.60;5.10;;;;;;;10.28;77.88;99266.03;5027743;27;103915;-69
2022/05/07 04:44:37;;;;;;;4.80;4.40;;;;;;;10.40;77.50;99267.91;5031784;27;104210;-69
2022/05/07 04:47:08;;;;;;;5.65;5.15;;;;;;;10.47;76.84;99263.94;5032186;27;103414;-69
2022/05/07 04:49:38;;;;;;;5.97;5.45;;;;;;;10.50;76.47;99268.22;4998691;27;104617;-68
2022/05/07 04:52:06;;;;;;;6.30;5.38;;;;;;;10.36;77.17;99272.53;5023958;27;102869;-68
2022/05/07 04:54:36;;;;;;;6.35;5.75;;;;;;;10.40;76.68;99267.91;5023833;27;104386;-69
2022/05/07 04:57:08;;;;;;;6.35;5.85;;;;;;;10.40;77.03;99273.19;5019022;27;103257;-69
2022/05/07 04:59:54;;;;;;;7.47;6.88;;;;;;;10.13;79.25;99274.94;5025569;27;102767;-68
2022/05/07 05:02:27;;;;;;;6.97;6.40;;;;;;;10.15;80.10;99267.75;5014951;27;103737;-69
2022/05/07 05:05:02;;;;;;;6.20;5.70;;;;;;;10.34;80.28;99277.06;5008957;27;103633;-69
2022/05/07 05:07:31;;;;;;;6.80;6.20;;;;;;;10.38;79.95;99283.03;5004848;27;105914;-69
2022/05/07 05:09:59;;;;;;;6.40;5.90;;;;;;;10.59;80.04;99278.16;5024864;27;102872;-69
2022/05/07 05:12:39;;;;;;;6.65;6.05;;;;;;;10.76;79.97;99285.88;5028461;27;104209;-67
2022/05/07 05:15:10;;;;;;;5.28;4.88;;;;;;;10.93;79.31;99283.00;5023916;27;104480;-67
2022/05/07 05:18:00;;;;;;;6.57;5.97;;;;;;;11.02;79.25;99283.28;5024629;27;103292;-67
2022/05/07 05:20:33;;;;;;;6.28;5.78;;;;;;;11.15;79.19;99283.31;5014183;27;102988;-68
2022/05/07 05:23:07;;;;;;;5.28;4.88;;;;;;;11.30;79.05;99281.47;5020504;27;104279;-68
2022/05/07 05:25:43;;;;;;;8.33;7.23;;;;;;;11.19;78.95;99289.25;5025264;27;103973;-68
2022/05/07 05:28:16;;;;;;;6.43;5.90;;;;;;;11.40;79.45;99282.53;5014028;27;103179;-68
2022/05/07 05:30:46;;;;;;;8.52;7.68;;;;;;;11.51;79.16;99291.47;5028459;27;103299;-67
2022/05/07 05:33:16;;;;;;;10.30;9.40;;;;;;;11.16;82.47;99294.75;5031430;27;102738;-69
2022/05/07 05:35:58;;;;;;;9.50;8.70;;;;;;;11.41;83.38;99294.81;5018767;27;103407;-69
2022/05/07 05:38:30;;;;;;;10.07;9.20;;;;;;;11.53;83.31;99300.16;5017684;27;103177;-69
2022/05/07 05:40:57;;;;;;;13.20;12.00;;;;;;;11.01;85.10;99294.78;5019090;27;103124;-69
2022/05/07 05:43:26;;;;;;;9.27;8.57;;;;;;;11.41;84.78;99290.38;5017915;27;103981;-69
2022/05/07 05:45:53;;;;;;;8.43;7.82;;;;;;;11.83;83.11;99296.41;5025412;27;104860;-69
2022/05/07 05:48:23;;;;;;;7.35;6.80;;;;;;;12.14;82.16;99302.16;5019822;27;105087;-68
2022/05/07 05:50:52;;;;;;;9.23;8.32;;;;;;;12.31;81.18;99308.09;5019557;27;102763;-68
2022/05/07 05:53:21;;;;;;;10.60;9.80;;;;;;;12.21;81.38;99303.41;5014492;27;103445;-68
2022/05/07 05:55:52;;;;;;;11.70;10.60;;;;;;;11.71;85.00;99306.03;5009776;27;105699;-67
2022/05/07 05:58:33;;;;;;;9.87;9.07;;;;;;;12.32;82.92;99304.50;5023206;27;104058;-68
2022/05/07 06:01:06;;;;;;;8.80;8.10;;;;;;;12.67;81.67;99306.34;5019780;27;102765;-68
2022/05/07 06:03:40;;;;;;;10.73;9.82;;;;;;;12.87;80.79;99302.25;5026833;27;103027;-68
2022/05/07 06:06:09;;;;;;;10.00;9.20;;;;;;;12.93;80.25;99299.16;5028475;27;105536;-68
2022/05/07 06:08:38;;;;;;;9.20;8.50;;;;;;;13.13;80.04;99306.56;5017008;27;104428;-66
2022/05/07 06:11:06;;;;;;;9.60;8.82;;;;;;;13.25;80.04;99296.81;5030040;27;103114;-68
2022/05/07 06:13:35;;;;;;;10.07;9.27;;;;;;;13.36;79.61;99300.38;5017941;27;103068;-67
2022/05/07 06:16:02;;;;;;;11.30;10.33;;;;;;;13.41;79.12;99296.56;5025603;27;103575;-70
2022/05/07 06:18:30;;;;;;;11.93;10.82;;;;;;;13.45;79.46;99298.00;5025430;27;106746;-68
2022/05/07 06:21:03;;;;;;;12.35;11.35;;;;;;;13.44;79.67;99301.66;5020602;27;102776;-67
2022/05/07 06:23:34;;;;;;;11.20;10.30;;;;;;;13.74;78.52;99300.19;5026542;27;104377;-67
2022/05/07 06:28:49;;;;;;;12.60;11.50;;;;;;;13.46;81.57;99299.72;5021330;27;103335;-70
2022/05/07 06:31:17;;;;;;;13.65;12.45;;;;;;;13.56;79.73;99306.03;5018313;27;102665;-70
2022/05/07 06:33:46;;;;;;;13.73;12.53;;;;;;;13.33;80.54;99300.63;5027300;27;103612;-70
2022/05/07 06:36:15;;;;;;;14.38;13.18;;;;;;;13.25;81.31;99303.00;5019907;27;103268;-70
2022/05/07 06:38:42;;;;;;;14.48;13.27;;;;;;;13.12;83.06;99307.50;5031731;27;103180;-70
2022/05/07 06:41:14;;;;;;;15.17;13.73;;;;;;;13.70;81.26;99308.47;5029117;27;103024;-70
2022/05/07 06:43:48;;;;;;;16.27;14.80;;;;;;;13.14;81.08;99310.88;5015722;27;104054;-70
2022/05/07 06:46:24;;;;;;;14.85;13.55;;;;;;;13.58;81.09;99304.97;5023765;27;103532;-70
2022/05/07 06:49:07;;;;;;;13.13;11.82;;;;;;;14.32;78.63;99304.53;5022936;27;103675;-70
2022/05/07 06:51:48;;;;;;;12.40;11.23;;;;;;;14.76;75.88;99310.84;5025606;27;102614;-70
2022/05/07 06:54:18;;;;;;;13.07;11.88;;;;;;;14.73;75.75;99305.75;5032964;27;102846;-69
2022/05/07 06:56:47;;;;;;;12.60;11.63;;;;;;;14.86;75.12;99306.47;5030552;27;103301;-69
2022/05/07 06:59:15;;;;;;;13.32;12.25;;;;;;;14.90;74.18;99313.25;5019644;27;103194;-69
2022/05/07 07:01:43;;;;;;;11.60;10.70;;;;;;;15.26;72.88;99301.44;5017323;27;102667;-70
2022/05/07 07:04:11;;;;;;;12.80;11.70;;;;;;;15.42;72.53;99294.72;5024318;27;104077;-69
2022/05/07 07:06:39;;;;;;;12.95;11.82;;;;;;;15.56;71.72;99301.56;5023717;27;103786;-71
2022/05/07 07:09:08;;;;;;;11.75;10.95;;;;;;;15.68;72.45;99305.03;5027231;27;104320;-72
2022/05/07 07:11:35;;;;;;;12.15;11.10;;;;;;;15.70;70.08;99305.75;5023915;27;103129;-71
2022/05/07 07:14:05;;;;;;;12.52;11.43;;;;;;;15.94;68.65;99301.91;5029498;27;103461;-71
2022/05/07 07:16:33;;;;;;;11.63;10.63;;;;;;;16.26;67.35;99301.78;5019309;27;103868;-71
2022/05/07 07:19:01;;;;;;;12.30;11.15;;;;;;;16.39;67.92;99307.78;5026818;27;104435;-71
2022/05/07 07:21:29;;;;;;;13.25;12.00;;;;;;;16.32;67.13;99306.59;5025378;27;103829;-72
2022/05/07 07:23:57;;;;;;;12.23;11.13;;;;;;;16.33;65.60;99304.78;5027656;27;103058;-71
2022/05/07 07:26:25;;;;;;;10.50;9.60;;;;;;;16.40;65.64;99301.44;5025439;27;103348;-71
2022/05/07 07:28:53;;;;;;;9.73;8.82;;;;;;;17.07;64.30;99300.84;5025673;27;103214;-71
2022/05/07 07:31:22;;;;;;;11.10;10.15;;;;;;;17.02;65.13;99295.09;5018410;27;103823;-71
2022/05/07 07:33:50;;;;;;;12.75;11.55;;;;;;;16.25;66.14;99298.28;5027345;27;102941;-71
2022/05/07 07:36:18;;;;;;;11.52;10.52;;;;;;;16.62;65.46;99292.44;5027174;27;104322;-71
2022/05/07 07:38:46;;;;;;;11.73;10.63;;;;;;;16.93;65.98;99290.56;5022698;27;103225;-72
2022/05/07 07:41:14;;;;;;;11.75;10.75;;;;;;;15.84;66.88;99297.44;5031732;27;103079;-71
2022/05/07 07:43:41;;;;;;;11.00;9.95;;;;;;;15.95;67.73;99292.06;5038141;27;103870;-71
2022/05/07 07:48:57;;;;;;;9.60;8.70;;;;;;;17.81;62.09;99289.56;5030079;27;103183;-71
2022/05/07 07:51:25;;;;;;;8.02;7.43;;;;;;;18.64;60.15;99286.13;5028008;27;102969;-72
2022/05/07 07:53:53;;;;;;;10.85;9.93;;;;;;;18.63;60.70;99289.81;5028857;27;103017;-73
2022/05/07 07:56:20;;;;;;;10.33;9.43;;;;;;;18.41;61.66;99287.47;5025221;27;103806;-71
2022/05/07 07:58:48;;;;;;;11.75;10.65;;;;;;;17.21;63.08;99290.63;5027968;27;103206;-71
2022/05/07 08:01:16;;;;;;;10.93;9.82;;;;;;;18.67;60.74;99284.97;5027412;27;102727;-72
2022/05/07 08:03:44;;;;;;;10.25;9.35;;;;;;;18.53;59.38;99291.66;5021575;27;102694;-72
2022/05/07 08:06:14;;;;;;;9.13;8.23;;;;;;;19.20;56.84;99280.59;5044626;27;103262;-72
2022/05/07 08:11:42;;;;;;;10.60;9.70;;;;;;;18.57;59.06;99293.06;5031288;27;102738;-73
2022/05/07 08:14:10;;;;;;;9.80;9.05;;;;;;;18.93;58.16;99284.16;5021086;27;103215;-72
2022/05/07 08:16:38;;;;;;;13.20;11.05;;;;;;;19.24;55.81;99283.81;5025059;27;103377;-74
2022/05/07 08:19:07;;;;;;;9.63;8.82;;;;;;;20.19;54.88;99285.69;5032448;27;103207;-72
2022/05/07 08:21:37;;;;;;;11.15;10.18;;;;;;;19.11;56.51;99286.88;5030308;27;103145;-72
2022/05/07 08:24:05;;;;;;;11.20;10.05;;;;;;;19.35;56.11;99288.97;5017451;27;103992;-72
2022/05/07 08:26:33;;;;;;;9.30;8.50;;;;;;;20.70;54.21;99282.16;5030319;27;103255;-71
2022/05/07 08:29:01;;;;;;;9.50;8.70;;;;;;;21.04;50.97;99282.13;5029495;27;103327;-72
2022/05/07 08:31:29;;;;;;;8.18;7.50;;;;;;;21.77;51.31;99271.53;5035101;27;102950;-72
2022/05/07 08:33:58;;;;;;;10.02;9.02;;;;;;;20.75;51.62;99281.69;5016873;27;102786;-72
2022/05/07 08:36:26;;;;;;;9.27;8.38;;;;;;;20.65;52.81;99275.59;5027140;27;103344;-72
2022/05/07 08:38:58;;;;;;;8.83;8.13;;;;;;;22.07;49.54;99270.88;5023880;27;103180;-72
2022/05/07 08:41:27;;;;;;;10.97;9.30;;;;;;;22.54;47.97;99268.25;5023905;27;104843;-71
2022/05/07 08:43:54;;;;;;;8.60;7.90;;;;;;;22.30;49.31;99271.00;5026588;27;104134;-71
2022/05/07 08:46:22;;;;;;;11.10;10.02;;;;;;;21.30;50.44;99276.69;5023228;27;103973;-71
2022/05/07 08:48:51;;;;;;;11.00;9.80;;;;;;;22.04;49.89;99263.13;5027586;27;103320;-71
2022/05/07 08:51:21;;;;;;;11.18;9.80;;;;;;;22.89;49.94;99265.13;5031781;27;103492;-72
2022/05/07 08:53:53;;;;;;;10.60;9.57;;;;;;;23.76;48.24;99268.47;5029715;27;104288;-74
2022/05/07 08:56:24;;;;;;;11.20;10.10;;;;;;;22.56;51.27;99268.09;5035761;27;103158;-75
2022/05/07 08:58:54;;;;;;;11.77;10.68;;;;;;;22.08;50.11;99261.81;5034009;27;103195;-75
2022/05/07 09:01:23;;;;;;;10.90;9.80;;;;;;;23.55;50.72;99261.06;5029132;27;102593;-74
2022/05/07 09:03:51;;;;;;;11.07;9.83;;;;;;;23.17;48.48;99257.41;5030465;27;103921;-73
2022/05/07 09:06:22;;;;;;;10.70;9.63;;;;;;;21.35;48.95;99259.06;5022242;27;104064;-73
2022/05/07 09:08:51;;;;;;;10.30;8.43;;;;;;;22.87;49.03;99258.25;5013513;27;107244;-73
2022/05/07 09:11:23;;;;;;;9.60;8.77;;;;;;;22.97;47.62;99261.53;5019025;27;102845;-73
2022/05/07 09:14:01;;;;;;;8.30;7.40;;;;;;;22.44;50.74;99262.22;5022213;27;104334;-73
2022/05/07 09:16:40;;;;;;;8.90;8.20;;;;;;;21.79;49.84;99256.06;5015794;27;103267;-73
2022/05/07 09:19:19;;;;;;;8.90;8.10;;;;;;;22.70;48.17;99262.00;5015833;27;104357;-73
2022/05/07 09:21:50;;;;;;;9.35;8.43;;;;;;;20.93;49.81;99258.25;5026169;27;102695;-73
2022/05/07 09:24:18;;;;;;;7.47;6.63;;;;;;;23.13;48.80;99247.97;5028263;27;103795;-74
2022/05/07 09:26:49;;;;;;;7.25;6.15;;;;;;;24.35;45.43;99256.81;5033512;27;104282;-73
2022/05/07 09:29:20;;;;;;;8.82;7.30;;;;;;;21.79;49.15;99246.16;5026927;27;103208;-73
2022/05/07 09:31:49;;;;;;;6.20;5.60;;;;;;;21.67;48.12;99247.50;5028399;27;102907;-73
2022/05/07 09:37:14;;;;;;;6.90;6.20;;;;;;;20.73;49.26;99256.84;5028776;27;103573;-73
2022/05/07 09:39:47;;;;;;;7.23;6.07;;;;;;;21.91;47.46;99249.38;5027205;27;103199;-73
2022/05/07 09:42:19;;;;;;;6.93;5.40;;;;;;;21.77;47.82;99242.81;5034560;27;102559;-74
2022/05/07 09:44:50;;;;;;;6.70;5.23;;;;;;;22.44;46.65;99238.84;5029278;27;103781;-73
2022/05/07 09:47:18;;;;;;;5.25;4.75;;;;;;;23.77;44.13;99235.09;5027440;27;103487;-73
2022/05/07 09:52:34;;;;;;;5.55;5.05;;;;;;;21.03;47.50;99237.47;5026680;27;102921;-73
2022/05/07 09:57:48;;;;;;;6.32;5.80;;;;;;;22.69;47.10;99242.31;5031099;27;104085;-73
2022/05/07 10:00:20;;;;;;;5.97;5.23;;;;;;;23.92;44.17;99230.56;5035360;27;103227;-73
2022/05/07 10:03:05;;;;;;;5.93;4.72;;;;;;;25.04;44.25;99230.38;5028356;27;102761;-73
2022/05/07 10:05:51;;;;;;;5.97;5.47;;;;;;;24.30;44.90;99229.56;5026150;27;102614;-73
2022/05/07 10:08:28;;;;;;;6.37;5.60;;;;;;;22.84;45.06;99234.34;5033601;27;103276;-73
2022/05/07 10:10:58;;;;;;;5.47;4.63;;;;;;;22.92;44.79;99234.31;5017719;27;104232;-73
2022/05/07 10:13:28;;;;;;;5.47;4.17;;;;;;;23.53;46.68;99217.25;5031460;27;103511;-73
2022/05/07 10:15:59;;;;;;;5.17;3.53;;;;;;;25.33;42.75;99220.28;5027918;27;102854;-72
2022/05/07 10:18:35;;;;;;;5.00;3.85;;;;;;;25.72;40.10;99219.84;5037953;27;104094;-72
2022/05/07 10:21:11;;;;;;;7.50;3.88;;;;;;;25.30;39.88;99212.56;5037600;27;103203;-72
2022/05/07 10:23:50;;;;;;;4.82;4.00;;;;;;;24.47;42.34;99219.41;5034198;27;103012;-72
2022/05/07 10:26:18;;;;;;;3.70;3.40;;;;;;;25.51;39.65;99211.75;5029646;27;103831;-73
2022/05/07 10:28:47;;;;;;;5.20;3.38;;;;;;;23.49;40.00;99211.41;5030659;27;103034;-73
2022/05/07 10:31:18;;;;;;;4.40;3.30;;;;;;;24.59;40.88;99210.63;5034280;27;103236;-73
2022/05/07 10:33:46;;;;;;;5.05;3.20;;;;;;;23.88;42.95;99210.38;5028451;27;102740;-73
2022/05/07 10:36:15;;;;;;;3.92;3.40;;;;;;;22.90;43.29;99209.41;5033222;27;103658;-73
2022/05/07 10:38:46;;;;;;;5.53;3.75;;;;;;;22.22;44.38;99209.97;5031915;27;103180;-73
2022/05/07 10:41:24;;;;;;;3.90;2.90;;;;;;;24.74;41.93;99208.75;5026595;27;103975;-72
2022/05/07 10:44:06;;;;;;;5.13;2.90;;;;;;;24.01;39.29;99205.19;5023974;27;102744;-73
2022/05/07 10:46:43;;;;;;;3.20;2.90;;;;;;;22.83;40.87;99200.31;5029748;27;103051;-73
2022/05/07 10:49:12;;;;;;;2.92;2.50;;;;;;;22.53;39.91;99202.81;5028638;27;103325;-73
2022/05/07 10:51:50;;;;;;;4.00;2.40;;;;;;;23.97;37.32;99199.31;5030015;27;103171;-73
2022/05/07 10:54:21;;;;;;;4.13;2.33;;;;;;;23.92;38.26;99192.78;5030488;27;102837;-73
2022/05/07 10:56:51;;;;;;;3.35;2.20;;;;;;;23.30;39.59;99192.94;5026822;27;102803;-73
2022/05/07 10:59:23;;;;;;;2.90;2.13;;;;;;;25.51;36.60;99181.16;5025255;27;104040;-73
2022/05/07 11:02:04;;;;;;;2.97;2.30;;;;;;;26.06;36.17;99183.06;5025100;27;102925;-73
2022/05/07 11:04:42;;;;;;;4.90;2.70;;;;;;;24.38;37.48;99180.84;5027397;27;102877;-73
2022/05/07 11:07:11;;;;;;;3.88;2.60;;;;;;;25.25;37.81;99185.25;5029273;27;104586;-73
2022/05/07 11:09:48;;;;;;;3.85;2.70;;;;;;;24.56;39.72;99172.38;5025816;27;104252;-73
2022/05/07 11:12:18;;;;;;;4.20;2.70;;;;;;;23.90;37.92;99181.34;5018824;27;103199;-73
2022/05/07 11:14:47;;;;;;;3.10;2.38;;;;;;;23.09;38.57;99176.59;5026701;27;102905;-73
2022/05/07 11:17:17;;;;;;;6.03;2.72;;;;;;;24.97;37.15;99173.53;5026847;27;102704;-73
2022/05/07 11:19:45;;;;;;;3.17;2.27;;;;;;;25.67;36.78;99165.50;5036802;27;103429;-73
2022/05/07 11:22:13;;;;;;;5.20;2.88;;;;;;;23.53;39.26;99177.63;5036198;27;103268;-74
2022/05/07 11:24:44;;;;;;;4.33;2.83;;;;;;;23.88;37.60;99178.00;5018875;27;103044;-73
2022/05/07 11:27:12;;;;;;;3.58;2.50;;;;;;;23.33;38.40;99168.34;5022051;27;103152;-74
2022/05/07 11:29:41;;;;;;;3.67;2.60;;;;;;;24.29;35.55;99165.75;5029025;27;103471;-73
2022/05/07 11:32:13;;;;;;;2.30;1.83;;;;;;;25.63;35.17;99155.28;5006176;27;107283;-73
2022/05/07 11:34:42;;;;;;;3.13;2.20;;;;;;;25.62;36.56;99156.28;5015014;27;102916;-74
2022/05/07 11:37:12;;;;;;;3.13;2.15;;;;;;;26.88;34.63;99155.00;5020705;27;102743;-75
2022/05/07 11:39:51;;;;;;;2.90;2.40;;;;;;;25.39;36.41;99142.94;5014465;27;104408;-74
2022/05/07 11:42:32;;;;;;;3.00;2.13;;;;;;;26.41;35.87;99144.16;5018578;27;103175;-75
2022/05/07 11:45:25;;;;;;;3.47;2.33;;;;;;;24.10;37.16;99150.13;5023899;27;103135;-74
2022/05/07 11:47:56;;;;;;;4.07;2.50;;;;;;;23.47;38.71;99153.25;5027342;27;104326;-74
2022/05/07 11:50:27;;;;;;;4.10;2.38;;;;;;;22.79;39.10;99154.03;5028726;27;104196;-74
2022/05/07 11:52:57;;;;;;;4.53;2.38;;;;;;;22.67;39.57;99150.09;5035868;27;103245;-73
2022/05/07 11:55:29;;;;;;;3.30;2.45;;;;;;;23.46;39.25;99148.91;5031181;27;102716;-74
2022/05/07 11:57:57;;;;;;;3.30;2.38;;;;;;;23.76;38.61;99141.69;5025425;27;102875;-74
2022/05/07 12:00:26;;;;;;;3.60;2.60;;;;;;;23.42;38.23;99143.03;5026722;27;104168;-74
2022/05/07 12:03:02;;;;;;;3.30;2.40;;;;;;;24.24;36.83;99125.00;5030926;27;104156;-73